createdAt,value
2023-04-03T00:01:12.541Z,100.00
2023-04-03T00:03:39.818Z,100.00
2023-04-03T00:06:08.277Z,100.00
2023-04-03T00:08:36.336Z,100.00
2023-04-03T00:11:04.736Z,100.00
2023-04-03T00:13:32.722Z,100.00
2023-04-03T00:16:00.150Z,100.00
2023-04-03T00:18:27.790Z,100.00
2023-04-03T00:20:54.910Z,100.00
2023-04-03T00:23:22.287Z,100.00
2023-04-03T00:25:49.437Z,100.00
2023-04-03T00:28:16.974Z,100.00
2023-04-03T00:30:44.152Z,100.00
2023-04-03T00:33:14.881Z,100.00
2023-04-03T00:35:42.374Z,100.00
2023-04-03T00:38:10.704Z,100.00
2023-04-03T00:40:42.912Z,100.00
2023-04-03T00:43:24.250Z,100.00
2023-04-03T00:45:54.102Z,100.00
2023-04-03T00:48:26.686Z,100.00
2023-04-03T00:50:54.858Z,100.00
2023-04-03T00:53:30.092Z,100.00
2023-04-03T00:55:58.108Z,100.00
2023-04-03T00:58:36.549Z,100.00
2023-04-03T01:01:09.542Z,100.00
2023-04-03T01:03:37.371Z,100.00
2023-04-03T01:06:06.319Z,100.00
2023-04-03T01:08:34.232Z,100.00
2023-04-03T01:11:01.528Z,100.00
2023-04-03T01:13:34.696Z,100.00
2023-04-03T01:16:04.899Z,100.00
2023-04-03T01:18:33.937Z,100.00
2023-04-03T01:21:29.577Z,100.00
2023-04-03T01:24:26.209Z,100.00
2023-04-03T01:26:55.483Z,100.00
2023-04-03T01:29:22.628Z,100.00
2023-04-03T01:31:54.754Z,100.00
2023-04-03T01:34:22.178Z,100.00
2023-04-03T01:36:52.129Z,100.00
2023-04-03T01:39:20.035Z,100.00
2023-04-03T01:41:47.522Z,100.00
2023-04-03T01:44:22.172Z,100.00
2023-04-03T01:46:51.423Z,100.00
2023-04-03T01:49:18.779Z,100.00
2023-04-03T01:51:46.484Z,100.00
2023-04-03T01:54:13.925Z,100.00
2023-04-03T01:56:41.200Z,100.00
2023-04-03T01:59:09.203Z,100.00
2023-04-03T02:01:37.642Z,100.00
2023-04-03T02:04:05.411Z,100.00
2023-04-03T02:06:32.732Z,100.00
2023-04-03T02:09:00.343Z,100.00
2023-04-03T02:11:27.737Z,100.00
2023-04-03T02:13:55.898Z,100.00
2023-04-03T02:16:23.519Z,100.00
2023-04-03T02:18:51.738Z,100.00
2023-04-03T02:21:19.708Z,100.00
2023-04-03T02:23:48.363Z,100.00
2023-04-03T02:26:20.517Z,100.00
2023-04-03T02:28:48.389Z,100.00
2023-04-03T02:31:16.195Z,100.00
2023-04-03T02:33:45.477Z,100.00
2023-04-03T02:36:15.945Z,100.00
2023-04-03T02:38:47.009Z,100.00
2023-04-03T02:41:15.113Z,100.00
2023-04-03T02:43:42.552Z,100.00
2023-04-03T02:46:12.034Z,100.00
2023-04-03T02:48:40.032Z,100.00
2023-04-03T02:51:07.502Z,100.00
2023-04-03T02:53:35.366Z,100.00
2023-04-03T02:56:10.012Z,100.00
2023-04-03T02:58:37.118Z,100.00
2023-04-03T03:01:06.188Z,100.00
2023-04-03T03:03:33.672Z,100.00
2023-04-03T03:06:11.141Z,100.00
2023-04-03T03:08:39.830Z,100.00
2023-04-03T03:11:07.490Z,100.00
2023-04-03T03:13:35.467Z,100.00
2023-04-03T03:16:03.987Z,100.00
2023-04-03T03:18:32.932Z,100.00
2023-04-03T03:21:02.428Z,100.00
2023-04-03T03:23:34.827Z,100.00
2023-04-03T03:26:06.824Z,100.00
2023-04-03T03:28:36.225Z,100.00
2023-04-03T03:31:05.313Z,100.00
2023-04-03T03:33:35.123Z,100.00
2023-04-03T03:36:03.731Z,100.00
2023-04-03T03:38:33.346Z,100.00
2023-04-03T03:41:02.811Z,100.00
2023-04-03T03:43:32.613Z,100.00
2023-04-03T03:46:00.924Z,100.00
2023-04-03T03:48:32.797Z,100.00
2023-04-03T03:51:03.949Z,100.00
2023-04-03T03:53:37.165Z,100.00
2023-04-03T03:56:09.380Z,100.00
2023-04-03T03:58:40.659Z,100.00
2023-04-03T04:01:09.553Z,100.00
2023-04-03T04:03:44.118Z,100.00
2023-04-03T04:06:16.003Z,100.00
2023-04-03T04:08:44.867Z,100.00
2023-04-03T04:11:14.621Z,100.00
2023-04-03T04:13:46.937Z,100.00
2023-04-03T04:16:17.929Z,100.00
2023-04-03T04:18:49.971Z,100.00
2023-04-03T04:21:20.129Z,100.00
2023-04-03T04:23:49.643Z,100.00
2023-04-03T04:26:18.048Z,100.00
2023-04-03T04:28:47.385Z,100.00
2023-04-03T04:31:16.279Z,100.00
2023-04-03T04:33:47.111Z,100.00
2023-04-03T04:36:17.053Z,100.00
2023-04-03T04:38:48.266Z,100.00
2023-04-03T04:41:17.767Z,100.00
2023-04-03T04:43:51.689Z,100.00
2023-04-03T04:46:20.176Z,100.00
2023-04-03T04:48:53.404Z,100.00
2023-04-03T04:51:22.989Z,100.00
2023-04-03T04:53:51.564Z,100.00
2023-04-03T04:56:22.126Z,100.00
2023-04-03T04:58:50.668Z,100.00
2023-04-03T05:01:22.749Z,100.00
2023-04-03T05:04:06.114Z,100.00
2023-04-03T05:06:34.794Z,100.00
2023-04-03T05:09:05.276Z,100.00
2023-04-03T05:11:34.912Z,100.00
2023-04-03T05:14:03.201Z,100.00
2023-04-03T05:16:31.448Z,100.00
2023-04-03T05:18:59.318Z,100.00
2023-04-03T05:21:29.430Z,100.00
2023-04-03T05:23:57.733Z,100.00
2023-04-03T05:26:26.637Z,100.00
2023-04-03T05:28:54.399Z,100.00
2023-04-03T05:31:23.628Z,100.00
2023-04-03T05:33:51.394Z,100.00
2023-04-03T05:36:19.765Z,100.00
2023-04-03T05:38:51.560Z,100.00
2023-04-03T05:41:22.227Z,100.00
2023-04-03T05:43:51.045Z,100.00
2023-04-03T05:46:23.418Z,100.00
2023-04-03T05:48:55.705Z,100.00
2023-04-03T05:51:35.705Z,100.00
2023-04-03T05:54:22.191Z,100.00
2023-04-03T05:56:49.630Z,100.00
2023-04-03T05:59:18.932Z,100.00
2023-04-03T06:01:47.977Z,100.00
2023-04-03T06:04:16.592Z,100.00
2023-04-03T06:06:54.317Z,100.00
2023-04-03T06:09:24.972Z,100.00
2023-04-03T06:11:53.480Z,100.00
2023-04-03T06:14:23.299Z,100.00
2023-04-03T06:16:51.033Z,100.00
2023-04-03T06:19:18.797Z,100.00
2023-04-03T06:21:51.810Z,100.00
2023-04-03T06:24:23.565Z,100.00
2023-04-03T06:26:53.782Z,100.00
2023-04-03T06:29:22.153Z,100.00
2023-04-03T06:31:49.965Z,100.00
2023-04-03T06:34:20.066Z,100.00
2023-04-03T06:36:48.359Z,100.00
2023-04-03T06:39:24.797Z,100.00
2023-04-03T06:41:53.474Z,100.00
2023-04-03T06:44:30.164Z,100.00
2023-04-03T06:46:58.296Z,100.00
2023-04-03T06:49:27.274Z,100.00
2023-04-03T06:51:55.263Z,100.00
2023-04-03T06:54:23.595Z,100.00
2023-04-03T06:56:51.732Z,100.00
2023-04-03T06:59:20.037Z,100.00
2023-04-03T07:01:48.849Z,100.00
2023-04-03T07:04:17.933Z,100.00
2023-04-03T07:06:50.378Z,100.00
2023-04-03T07:09:18.862Z,100.00
2023-04-03T07:11:46.932Z,100.00
2023-04-03T07:14:14.807Z,100.00
2023-04-03T07:16:42.832Z,100.00
2023-04-03T07:19:12.251Z,100.00
2023-04-03T07:21:40.506Z,100.00
2023-04-03T07:24:15.087Z,100.00
2023-04-03T07:26:47.342Z,100.00
2023-04-03T07:29:16.406Z,100.00
2023-04-03T07:31:46.358Z,100.00
2023-04-03T07:34:13.957Z,100.00
2023-04-03T07:36:42.968Z,100.00
2023-04-03T07:39:12.947Z,100.00
2023-04-03T07:41:41.227Z,100.00
2023-04-03T07:44:11.319Z,100.00
2023-04-03T07:46:40.255Z,100.00
2023-04-03T07:49:09.187Z,100.00
2023-04-03T07:51:38.864Z,100.00
2023-04-03T07:54:06.905Z,100.00
2023-04-03T07:56:35.790Z,100.00
2023-04-03T07:59:04.473Z,100.00
2023-04-03T08:01:34.298Z,100.00
2023-04-03T08:04:02.897Z,100.00
2023-04-03T08:06:45.625Z,100.00
2023-04-03T08:09:17.016Z,100.00
2023-04-03T08:11:45.905Z,100.00
2023-04-03T08:14:19.784Z,100.00
2023-04-03T08:16:51.398Z,100.00
2023-04-03T08:19:26.002Z,100.00
2023-04-03T08:21:56.293Z,100.00
2023-04-03T08:24:24.524Z,99.82
2023-04-03T08:26:54.800Z,99.31
2023-04-03T08:29:23.599Z,96.17
2023-04-03T08:31:51.847Z,97.26
2023-04-03T08:34:21.372Z,97.30
2023-04-03T08:36:48.825Z,97.87
2023-04-03T08:39:16.332Z,95.42
2023-04-03T08:41:48.954Z,94.88
2023-04-03T08:44:32.372Z,95.01
2023-04-03T08:47:22.906Z,94.73
2023-04-03T08:49:54.919Z,95.61
2023-04-03T08:52:35.401Z,97.43
2023-04-03T08:55:06.591Z,97.12
2023-04-03T08:57:43.382Z,97.58
2023-04-03T09:00:22.570Z,97.49
2023-04-03T09:02:56.301Z,97.53
2023-04-03T09:05:49.029Z,95.08
2023-04-03T09:08:49.021Z,94.12
2023-04-03T09:11:30.886Z,93.36
2023-04-03T09:14:06.016Z,90.47
2023-04-03T09:16:54.110Z,91.31
2023-04-03T09:19:26.352Z,92.01
2023-04-03T09:21:59.635Z,93.52
2023-04-03T09:24:28.106Z,95.45
2023-04-03T09:27:05.412Z,96.42
2023-04-03T09:29:37.756Z,97.67
2023-04-03T09:32:19.958Z,100.00
2023-04-03T09:34:50.452Z,99.29
2023-04-03T09:37:42.046Z,99.04
2023-04-03T09:40:28.156Z,97.24
2023-04-03T09:43:02.094Z,96.91
2023-04-03T09:45:35.447Z,93.51
2023-04-03T09:48:19.916Z,93.82
2023-04-03T09:51:05.906Z,88.58
2023-04-03T09:53:45.699Z,85.74
2023-04-03T09:56:24.208Z,84.21
2023-04-03T09:59:01.899Z,82.19
2023-04-03T10:01:33.821Z,83.86
2023-04-03T10:04:10.103Z,82.00
2023-04-03T10:06:51.975Z,81.57
2023-04-03T10:09:31.315Z,81.44
2023-04-03T10:12:13.354Z,82.01
2023-04-03T10:14:57.510Z,85.09
2023-04-03T10:17:36.360Z,85.51
2023-04-03T10:20:11.779Z,86.01
2023-04-03T10:23:19.536Z,86.43
2023-04-03T10:25:53.780Z,86.19
2023-04-03T10:28:35.900Z,84.28
2023-04-03T10:31:09.488Z,84.54
2023-04-03T10:34:06.506Z,85.40
2023-04-03T10:36:36.245Z,87.03
2023-04-03T10:39:15.105Z,87.98
2023-04-03T10:42:00.891Z,89.33
2023-04-03T10:44:53.658Z,91.41
2023-04-03T10:47:44.430Z,92.17
2023-04-03T10:50:21.072Z,93.10
2023-04-03T10:53:09.640Z,94.44
2023-04-03T10:56:09.889Z,95.43
2023-04-03T10:58:45.091Z,95.26
2023-04-03T11:01:39.501Z,94.15
2023-04-03T11:04:09.267Z,93.57
2023-04-03T11:06:49.400Z,93.22
2023-04-03T11:09:20.114Z,92.75
2023-04-03T11:11:50.852Z,93.30
2023-04-03T11:14:32.296Z,93.45
2023-04-03T11:17:14.135Z,94.66
2023-04-03T11:19:55.096Z,94.76
2023-04-03T11:22:36.641Z,95.36
2023-04-03T11:25:09.391Z,95.65
2023-04-03T11:28:03.969Z,95.46
2023-04-03T11:30:38.054Z,95.45
2023-04-03T11:33:35.955Z,95.71
2023-04-03T11:36:25.901Z,95.59
2023-04-03T11:39:10.105Z,95.87
2023-04-03T11:41:38.238Z,97.08
2023-04-03T11:44:28.833Z,97.43
2023-04-03T11:47:00.016Z,97.90
2023-04-03T11:50:03.362Z,98.40
2023-04-03T11:52:43.134Z,99.35
2023-04-03T11:55:23.604Z,99.44
2023-04-03T11:58:01.018Z,99.48
2023-04-03T12:00:52.965Z,100.00
2023-04-03T12:03:28.018Z,100.00
2023-04-03T12:06:18.583Z,100.00
2023-04-03T12:08:54.926Z,100.00
2023-04-03T12:11:31.886Z,100.00
2023-04-03T12:13:59.908Z,100.00
2023-04-03T12:16:39.739Z,100.00
2023-04-03T12:19:17.287Z,100.00
2023-04-03T12:21:51.323Z,100.00
2023-04-03T12:24:19.071Z,100.00
2023-04-03T12:26:59.725Z,100.00
2023-04-03T12:29:35.664Z,100.00
2023-04-03T12:32:40.666Z,100.00
2023-04-03T12:35:08.739Z,100.00
2023-04-03T12:38:15.158Z,100.00
2023-04-03T12:40:55.714Z,100.00
2023-04-03T12:44:00.229Z,100.00
2023-04-03T12:46:50.481Z,100.00
2023-04-03T12:49:30.100Z,100.00
2023-04-03T12:51:59.838Z,100.00
2023-04-03T12:54:37.896Z,100.00
2023-04-03T12:57:24.650Z,100.00
2023-04-03T12:59:52.516Z,100.00
2023-04-03T13:02:30.719Z,100.00
2023-04-03T13:05:03.070Z,100.00
2023-04-03T13:07:35.784Z,100.00
2023-04-03T13:10:21.161Z,100.00
2023-04-03T13:12:53.710Z,100.00
2023-04-03T13:15:31.483Z,100.00
2023-04-03T13:17:59.297Z,100.00
2023-04-03T13:20:33.713Z,100.00
2023-04-03T13:23:06.471Z,100.00
2023-04-03T13:25:37.447Z,100.00
2023-04-03T13:28:13.647Z,100.00
2023-04-03T13:30:55.858Z,100.00
2023-04-03T13:33:29.060Z,100.00
2023-04-03T13:36:19.049Z,100.00
2023-04-03T13:38:46.812Z,100.00
2023-04-03T13:41:45.300Z,100.00
2023-04-03T13:44:25.370Z,100.00
2023-04-03T13:46:55.766Z,100.00
2023-04-03T13:49:34.116Z,100.00
2023-04-03T13:52:08.099Z,100.00
2023-04-03T13:54:40.676Z,100.00
2023-04-03T13:57:17.810Z,100.00
2023-04-03T13:59:46.599Z,100.00
2023-04-03T14:02:34.100Z,100.00
2023-04-03T14:05:04.694Z,100.00
2023-04-03T14:07:33.309Z,100.00
2023-04-03T14:10:01.372Z,100.00
2023-04-03T14:12:34.675Z,100.00
2023-04-03T14:15:04.484Z,100.00
2023-04-03T14:17:32.678Z,100.00
2023-04-03T14:20:02.762Z,100.00
2023-04-03T14:22:33.788Z,100.00
2023-04-03T14:25:02.013Z,100.00
2023-04-03T14:27:40.891Z,100.00
2023-04-03T14:30:15.516Z,100.00
2023-04-03T14:32:43.584Z,100.00
2023-04-03T14:35:11.586Z,100.00
2023-04-03T14:37:39.247Z,100.00
2023-04-03T14:40:10.513Z,100.00
2023-04-03T14:42:39.696Z,100.00
2023-04-03T14:45:17.804Z,100.00
2023-04-03T14:47:53.330Z,100.00
2023-04-03T14:50:26.209Z,100.00
2023-04-03T14:52:59.667Z,100.00
2023-04-03T14:55:29.652Z,100.00
2023-04-03T14:58:04.021Z,100.00
2023-04-03T15:00:33.398Z,100.00
2023-04-03T15:03:02.467Z,100.00
2023-04-03T15:05:31.966Z,100.00
2023-04-03T15:08:02.147Z,100.00
2023-04-03T15:10:31.758Z,100.00
2023-04-03T15:12:59.463Z,100.00
2023-04-03T15:15:31.201Z,100.00
2023-04-03T15:17:59.985Z,100.00
2023-04-03T15:20:32.449Z,100.00
2023-04-03T15:23:04.557Z,100.00
2023-04-03T15:25:34.310Z,100.00
2023-04-03T15:28:03.306Z,100.00
2023-04-03T15:30:32.611Z,100.00
2023-04-03T15:33:03.764Z,100.00
2023-04-03T15:35:32.286Z,100.00
2023-04-03T15:37:59.543Z,100.00
2023-04-03T15:40:27.677Z,100.00
2023-04-03T15:42:55.352Z,100.00
2023-04-03T15:45:29.199Z,100.00
2023-04-03T15:47:57.446Z,100.00
2023-04-03T15:50:25.683Z,100.00
2023-04-03T15:53:02.224Z,100.00
2023-04-03T15:55:33.582Z,100.00
2023-04-03T15:58:04.024Z,100.00
2023-04-03T16:00:33.319Z,100.00
2023-04-03T16:03:24.038Z,100.00
2023-04-03T16:05:52.153Z,100.00
2023-04-03T16:08:21.328Z,100.00
2023-04-03T16:10:53.145Z,100.00
2023-04-03T16:13:21.666Z,100.00
2023-04-03T16:15:51.136Z,100.00
2023-04-03T16:18:19.912Z,100.00
2023-04-03T16:20:48.628Z,100.00
2023-04-03T16:25:48.412Z,100.00
2023-04-03T16:28:16.803Z,100.00
2023-04-03T16:30:47.794Z,100.00
2023-04-03T16:33:15.256Z,100.00
2023-04-03T16:35:44.714Z,100.00
2023-04-03T16:38:13.762Z,100.00
2023-04-03T16:40:44.668Z,100.00
2023-04-03T16:43:13.556Z,100.00
2023-04-03T16:45:41.792Z,100.00
2023-04-03T16:48:10.169Z,100.00
2023-04-03T16:50:37.652Z,100.00
2023-04-03T16:53:05.008Z,100.00
2023-04-03T16:55:33.050Z,100.00
2023-04-03T16:58:00.284Z,100.00
2023-04-03T17:00:27.993Z,100.00
2023-04-03T17:02:55.252Z,100.00
2023-04-03T17:05:23.594Z,100.00
2023-04-03T17:07:52.079Z,100.00
2023-04-03T17:10:19.582Z,100.00
2023-04-03T17:12:46.886Z,100.00
2023-04-03T17:15:14.854Z,100.00
2023-04-03T17:17:42.837Z,100.00
2023-04-03T17:20:12.414Z,100.00
2023-04-03T17:22:40.229Z,100.00
2023-04-03T17:25:08.359Z,100.00
2023-04-03T17:27:35.782Z,100.00
2023-04-03T17:30:04.271Z,100.00
2023-04-03T17:32:31.740Z,100.00
2023-04-03T17:34:59.044Z,100.00
2023-04-03T17:37:26.647Z,100.00
2023-04-03T17:39:54.027Z,100.00
2023-04-03T17:42:21.633Z,100.00
2023-04-03T17:44:48.971Z,100.00
2023-04-03T17:47:16.130Z,100.00
2023-04-03T17:49:43.478Z,100.00
2023-04-03T17:52:11.131Z,100.00
2023-04-03T17:54:38.422Z,100.00
2023-04-03T17:57:05.818Z,100.00
2023-04-03T17:59:33.399Z,100.00
2023-04-03T18:02:00.910Z,100.00
2023-04-03T18:04:31.179Z,100.00
2023-04-03T18:06:58.656Z,100.00
2023-04-03T18:09:30.026Z,100.00
2023-04-03T18:11:57.884Z,100.00
2023-04-03T18:14:27.539Z,100.00
2023-04-03T18:16:57.812Z,100.00
2023-04-03T18:19:28.348Z,100.00
2023-04-03T18:22:00.950Z,100.00
2023-04-03T18:24:29.447Z,100.00
2023-04-03T18:27:06.651Z,100.00
2023-04-03T18:29:37.604Z,100.00
2023-04-03T18:32:07.920Z,100.00
2023-04-03T18:34:35.405Z,100.00
2023-04-03T18:37:03.840Z,100.00
2023-04-03T18:39:31.216Z,100.00
2023-04-03T18:42:04.100Z,100.00
2023-04-03T18:44:33.270Z,100.00
2023-04-03T18:47:00.980Z,100.00
2023-04-03T18:49:31.603Z,100.00
2023-04-03T18:51:59.158Z,100.00
2023-04-03T18:54:26.784Z,100.00
2023-04-03T18:56:54.741Z,100.00
2023-04-03T18:59:22.132Z,100.00
2023-04-03T19:01:50.512Z,100.00
2023-04-03T19:04:18.344Z,100.00
2023-04-03T19:06:45.997Z,100.00
2023-04-03T19:09:14.903Z,100.00
2023-04-03T19:11:42.711Z,100.00
2023-04-03T19:14:16.737Z,100.00
2023-04-03T19:16:46.000Z,100.00
2023-04-03T19:19:13.728Z,100.00
2023-04-03T19:21:42.259Z,100.00
2023-04-03T19:24:11.177Z,100.00
2023-04-03T19:26:39.885Z,100.00
2023-04-03T19:29:07.974Z,100.00
2023-04-03T19:31:37.485Z,100.00
2023-04-03T19:34:07.048Z,100.00
2023-04-03T19:36:36.816Z,100.00
2023-04-03T19:39:08.364Z,100.00
2023-04-03T19:41:37.542Z,100.00
2023-04-03T19:44:07.553Z,100.00
2023-04-03T19:46:35.804Z,100.00
2023-04-03T19:49:03.835Z,100.00
2023-04-03T19:51:31.146Z,100.00
2023-04-03T19:53:59.307Z,100.00
2023-04-03T19:56:27.309Z,100.00
2023-04-03T19:58:56.616Z,100.00
2023-04-03T20:01:24.787Z,100.00
2023-04-03T20:03:52.265Z,100.00
2023-04-03T20:06:19.705Z,100.00
2023-04-03T20:08:47.000Z,100.00
2023-04-03T20:11:14.496Z,100.00
2023-04-03T20:13:41.745Z,100.00
2023-04-03T20:16:09.600Z,100.00
2023-04-03T20:18:37.219Z,100.00
2023-04-03T20:21:05.960Z,100.00
2023-04-03T20:23:34.369Z,100.00
2023-04-03T20:26:10.890Z,100.00
2023-04-03T20:28:43.177Z,100.00
2023-04-03T20:31:12.225Z,100.00
2023-04-03T20:33:39.975Z,100.00
2023-04-03T20:36:07.883Z,100.00
2023-04-03T20:38:37.327Z,100.00
2023-04-03T20:41:05.157Z,100.00
2023-04-03T20:43:32.418Z,100.00
2023-04-03T20:46:01.606Z,100.00
2023-04-03T20:48:30.144Z,100.00
2023-04-03T20:50:59.638Z,100.00
2023-04-03T20:53:27.424Z,100.00
2023-04-03T20:56:00.594Z,100.00
2023-04-03T20:58:30.627Z,100.00
2023-04-03T21:00:58.350Z,100.00
2023-04-03T21:03:27.488Z,100.00
2023-04-03T21:06:01.194Z,100.00
2023-04-03T21:09:06.445Z,100.00
2023-04-03T21:12:12.099Z,100.00
2023-04-03T21:15:16.621Z,100.00
2023-04-03T21:18:28.937Z,100.00
2023-04-03T21:20:56.645Z,100.00
2023-04-03T21:23:26.632Z,100.00
2023-04-03T21:25:53.881Z,100.00
2023-04-03T21:28:22.117Z,100.00
2023-04-03T21:30:49.902Z,100.00
2023-04-03T21:33:19.159Z,100.00
2023-04-03T21:35:46.733Z,100.00
2023-04-03T21:38:15.655Z,100.00
2023-04-03T21:40:46.738Z,100.00
2023-04-03T21:43:14.579Z,100.00
2023-04-03T21:45:41.898Z,100.00
2023-04-03T21:48:10.974Z,100.00
2023-04-03T21:50:39.008Z,100.00
2023-04-03T21:53:07.488Z,100.00
2023-04-03T21:55:34.647Z,100.00
2023-04-03T21:58:01.893Z,100.00
2023-04-03T22:00:29.570Z,100.00
2023-04-03T22:03:07.598Z,100.00
2023-04-03T22:05:37.828Z,100.00
2023-04-03T22:08:05.250Z,100.00
2023-04-03T22:10:32.699Z,100.00
2023-04-03T22:12:59.705Z,100.00
2023-04-03T22:15:27.308Z,100.00
2023-04-03T22:17:54.665Z,100.00
2023-04-03T22:20:22.150Z,100.00
2023-04-03T22:22:51.132Z,100.00
2023-04-03T22:25:18.812Z,100.00
2023-04-03T22:27:46.497Z,100.00
2023-04-03T22:30:14.111Z,100.00
2023-04-03T22:32:41.716Z,100.00
2023-04-03T22:35:10.959Z,100.00
2023-04-03T22:37:38.179Z,100.00
2023-04-03T22:40:05.967Z,100.00
2023-04-03T22:42:34.129Z,100.00
2023-04-03T22:45:02.157Z,100.00
2023-04-03T22:47:29.839Z,100.00
2023-04-03T22:49:57.306Z,100.00
2023-04-03T22:52:25.266Z,100.00
2023-04-03T22:54:52.693Z,100.00
2023-04-03T22:57:19.796Z,100.00
2023-04-03T22:59:46.907Z,100.00
2023-04-03T23:02:14.403Z,100.00
2023-04-03T23:04:41.994Z,100.00
2023-04-03T23:07:09.551Z,100.00
2023-04-03T23:09:37.017Z,100.00
2023-04-03T23:12:04.416Z,100.00
2023-04-03T23:14:31.902Z,100.00
2023-04-03T23:17:05.760Z,100.00
2023-04-03T23:19:35.306Z,100.00
2023-04-03T23:22:02.886Z,100.00
2023-04-03T23:24:30.129Z,100.00
2023-04-03T23:26:58.170Z,100.00
2023-04-03T23:29:25.259Z,100.00
2023-04-03T23:31:56.704Z,100.00
2023-04-03T23:34:26.056Z,100.00
2023-04-03T23:36:55.197Z,100.00
2023-04-03T23:39:23.305Z,100.00
2023-04-03T23:41:51.061Z,100.00
2023-04-03T23:44:18.730Z,100.00
2023-04-03T23:46:47.467Z,100.00
2023-04-03T23:49:17.831Z,100.00
2023-04-03T23:51:46.616Z,100.00
2023-04-03T23:54:13.831Z,100.00
2023-04-03T23:56:41.028Z,100.00
2023-04-03T23:59:08.142Z,100.00
